Time;durP1;ratioP1;P1;durP2;ratioP2;P2;SDS_P1;SDS_P2;PMS_P1;PMS_P2;Temp;Humidity;BMP_temperature;BMP_pressure;BME280_temperature;BME280_humidity;BME280_pressure;Samples;Min_cycle;Max_cycle;Signal;HPM_P1;HPM_P2
2022/07/13 00:00:08;;;;;;;;;;;;;;;;;;4971011;28;129417;-64
2022/07/13 00:02:35;;;;;;;;;;;;;;;;;;4978256;28;136689;-66
2022/07/13 00:05:01;;;;;;;;;;;;;;;;;;4970897;28;138012;-64
2022/07/13 00:07:27;;;;;;;;;;;;;;;;;;4963418;28;127036;-64
2022/07/13 00:09:54;;;;;;;;;;;;;;;;;;4969331;28;137420;-64
2022/07/13 00:12:20;;;;;;;;;;;;;;;;;;4971156;28;129588;-64
2022/07/13 00:14:46;;;;;;;;;;;;;;;;;;4969383;28;107303;-64
2022/07/13 00:17:12;;;;;;;;;;;;;;;;;;4966378;28;135923;-64
2022/07/13 00:19:39;;;;;;;;;;;;;;;;;;4975297;28;128850;-64
2022/07/13 00:22:05;;;;;;;;;;;;;;;;;;4964177;28;133874;-64
2022/07/13 00:24:32;;;;;;;;;;;;;;;;;;4970690;28;136488;-64
2022/07/13 00:26:58;;;;;;;;;;;;;;;;;;4964780;28;128161;-64
2022/07/13 00:29:24;;;;;;;;;;;;;;;;;;4946004;28;136611;-64
2022/07/13 00:31:51;;;;;;;;;;;;;;;;;;4959072;28;125754;-65
2022/07/13 00:34:17;;;;;;;;;;;;;;;;;;4944635;28;136103;-66
2022/07/13 00:36:43;;;;;;;;;;;;;;;;;;4963673;28;121958;-64
2022/07/13 00:39:10;;;;;;;;;;;;;;;;;;4974673;28;127026;-63
2022/07/13 00:41:36;;;;;;;;;;;;;;;;;;4976270;28;137436;-64
2022/07/13 00:44:02;;;;;;;;;;;;;;;;;;4977161;28;136056;-63
2022/07/13 00:46:29;;;;;;;;;;;;;;;;;;4966442;28;112921;-63
2022/07/13 00:48:55;;;;;;;;;;;;;;;;;;4953035;28;136835;-64
2022/07/13 00:51:21;;;;;;;;;;;;;;;;;;4964011;28;136566;-63
2022/07/13 00:53:47;;;;;;;;;;;;;;;;;;4974251;28;128034;-63
2022/07/13 00:56:14;;;;;;;;;;;;;;;;;;4944891;28;136901;-63
2022/07/13 00:58:40;;;;;;;;;;;;;;;;;;4967910;28;126570;-63
2022/07/13 01:01:06;;;;;;;;;;;;;;;;;;4972122;28;136774;-63
2022/07/13 01:03:32;;;;;;;;;;;;;;;;;;4974125;28;108268;-63
2022/07/13 01:05:59;;;;;;;;;;;;;;;;;;4959434;28;128965;-62
2022/07/13 01:08:25;;;;;;;;;;;;;;;;;;4999959;22;125499;-63
2022/07/13 01:10:51;;;;;;;;;;;;;;;;;;5001704;28;135297;-63
2022/07/13 01:13:18;;;;;;;;;;;;;;;;;;5001097;28;126546;-63
2022/07/13 01:15:44;;;;;;;;;;;;;;;;;;5005589;28;118511;-63
2022/07/13 01:18:10;;;;;;;;;;;;;;;;;;5002550;28;122211;-62
2022/07/13 01:20:37;;;;;;;;;;;;;;;;;;5000135;27;136177;-63
2022/07/13 01:23:03;;;;;;;;;;;;;;;;;;5002088;28;137244;-63
2022/07/13 01:25:29;;;;;;;;;;;;;;;;;;5004458;28;128202;-63
2022/07/13 01:27:55;;;;;;;;;;;;;;;;;;4999477;28;123004;-63
2022/07/13 01:30:22;;;;;;;;;;;;;;;;;;5001705;27;133603;-63
2022/07/13 01:32:48;;;;;;;;;;;;;;;;;;5002240;28;107137;-62
2022/07/13 01:35:15;;;;;;;;;;;;;;;;;;5004462;28;108104;-63
2022/07/13 01:37:41;;;;;;;;;;;;;;;;;;5002261;28;106641;-63
2022/07/13 01:40:09;;;;;;;;;;;;;;;;;;5020172;27;111317;-63
2022/07/13 01:42:35;;;;;;;;;;;;;;;;;;4996069;27;138776;-63
2022/07/13 01:45:02;;;;;;;;;;;;;;;;;;5000463;27;128445;-63
2022/07/13 01:47:28;;;;;;;;;;;;;;;;;;5004001;27;122237;-63
2022/07/13 01:49:54;;;;;;;;;;;;;;;;;;5001370;27;136770;-63
2022/07/13 01:52:20;;;;;;;;;;;;;;;;;;5002451;27;132708;-63
2022/07/13 01:54:47;;;;;;;;;;;;;;;;;;5003653;27;136818;-63
2022/07/13 01:57:13;;;;;;;;;;;;;;;;;;5020582;27;137496;-63
2022/07/13 01:59:39;;;;;;;;;;;;;;;;;;5003399;27;135438;-63
2022/07/13 02:02:06;;;;;;;;;;;;;;;;;;5002537;27;133505;-63
2022/07/13 02:04:32;;;;;;;;;;;;;;;;;;5020589;27;128381;-63
2022/07/13 02:06:59;;;;;;;;;;;;;;;;;;5001854;27;105981;-63
2022/07/13 02:09:26;;;;;;;;;;;;;;;;;;5004064;27;117710;-63
2022/07/13 02:11:52;;;;;;;;;;;;;;;;;;5000212;28;126565;-64
2022/07/13 02:14:19;;;;;;;;;;;;;;;;;;4999861;27;128517;-65
2022/07/13 02:16:46;;;;;;;;;;;;;;;;;;5003218;28;132084;-63
2022/07/13 02:19:12;;;;;;;;;;;;;;;;;;5005744;27;132098;-63
2022/07/13 02:21:38;;;;;;;;;;;;;;;;;;5000968;27;134240;-63
2022/07/13 02:24:04;;;;;;;;;;;;;;;;;;5003879;27;128818;-62
2022/07/13 02:26:31;;;;;;;;;;;;;;;;;;4999963;27;137179;-63
2022/07/13 02:28:58;;;;;;;;;;;;;;;;;;5013900;27;109485;-63
2022/07/13 02:31:24;;;;;;;;;;;;;;;;;;5004712;27;117980;-63
2022/07/13 02:33:51;;;;;;;;;;;;;;;;;;5003860;27;137507;-62
2022/07/13 02:36:18;;;;;;;;;;;;;;;;;;5006658;27;109036;-63
2022/07/13 02:38:47;;;;;;;;;;;;;;;;;;4993565;28;106549;-62
2022/07/13 02:41:16;;;;;;;;;;;;;;;;;;5009096;27;108169;-63
2022/07/13 02:43:42;;;;;;;;;;;;;;;;;;5006667;27;128142;-63
2022/07/13 02:46:10;;;;;;;;;;;;;;;;;;5007361;27;107478;-62
2022/07/13 02:48:36;;;;;;;;;;;;;;;;;;5020824;27;134312;-63
2022/07/13 02:51:02;;;;;;;;;;;;;;;;;;5007734;27;108257;-63
2022/07/13 02:53:29;;;;;;;;;;;;;;;;;;5019783;27;135594;-62
2022/07/13 02:55:58;;;;;;;;;;;;;;;;;;5007475;27;108846;-63
2022/07/13 02:58:25;;;;;;;;;;;;;;;;;;5020917;27;106419;-63
2022/07/13 03:00:51;;;;;;;;;;;;;;;;;;5023850;27;112223;-62
2022/07/13 03:03:18;;;;;;;;;;;;;;;;;;5009745;27;135893;-63
2022/07/13 03:05:46;;;;;;;;;;;;;;;;;;5002993;27;108241;-63
2022/07/13 03:08:12;;;;;;;;;;;;;;;;;;5005570;27;136291;-62
2022/07/13 03:10:38;;;;;;;;;;;;;;;;;;5005070;27;131057;-63
2022/07/13 03:13:04;;;;;;;;;;;;;;;;;;5005914;27;134716;-63
2022/07/13 03:15:31;;;;;;;;;;;;;;;;;;4998696;28;108822;-63
2022/07/13 03:17:57;;;;;;;;;;;;;;;;;;5006173;28;129815;-62
2022/07/13 03:20:24;;;;;;;;;;;;;;;;;;5006203;27;132864;-63
2022/07/13 03:22:51;;;;;;;;;;;;;;;;;;5002478;27;136572;-62
2022/07/13 03:25:18;;;;;;;;;;;;;;;;;;5009362;27;106431;-63
2022/07/13 03:27:48;;;;;;;;;;;;;;;;;;5005922;27;109220;-62
2022/07/13 03:30:14;;;;;;;;;;;;;;;;;;5021415;27;128233;-64
2022/07/13 03:32:41;;;;;;;;;;;;;;;;;;5006745;27;133753;-63
2022/07/13 03:35:08;;;;;;;;;;;;;;;;;;5005792;27;109041;-63
2022/07/13 03:37:35;;;;;;;;;;;;;;;;;;5004898;28;106798;-63
2022/07/13 03:40:02;;;;;;;;;;;;;;;;;;5005493;27;123863;-63
2022/07/13 03:42:29;;;;;;;;;;;;;;;;;;5002238;28;108905;-63
2022/07/13 03:44:55;;;;;;;;;;;;;;;;;;5025435;27;123783;-62
2022/07/13 03:47:21;;;;;;;;;;;;;;;;;;5004661;27;125269;-62
2022/07/13 03:49:47;;;;;;;;;;;;;;;;;;5016409;27;126914;-62
2022/07/13 03:52:14;;;;;;;;;;;;;;;;;;5004332;27;134434;-62
2022/07/13 03:54:40;;;;;;;;;;;;;;;;;;5004712;27;136568;-62
2022/07/13 03:57:07;;;;;;;;;;;;;;;;;;5002672;27;107211;-64
2022/07/13 03:59:34;;;;;;;;;;;;;;;;;;5005387;28;108340;-64
2022/07/13 04:02:00;;;;;;;;;;;;;;;;;;5005301;27;130432;-62
2022/07/13 04:04:27;;;;;;;;;;;;;;;;;;4999559;27;119959;-62
2022/07/13 04:06:56;;;;;;;;;;;;;;;;;;5020510;27;108809;-63
2022/07/13 04:09:22;;;;;;;;;;;;;;;;;;5005014;27;131574;-63
2022/07/13 04:11:48;;;;;;;;;;;;;;;;;;5005083;27;111958;-62
2022/07/13 04:14:16;;;;;;;;;;;;;;;;;;5020795;27;108786;-64
2022/07/13 04:16:42;;;;;;;;;;;;;;;;;;5003850;27;126510;-63
2022/07/13 04:19:09;;;;;;;;;;;;;;;;;;4998761;27;136064;-64
2022/07/13 04:21:37;;;;;;;;;;;;;;;;;;5021745;27;109825;-63
2022/07/13 04:24:03;;;;;;;;;;;;;;;;;;5003790;27;130230;-62
2022/07/13 04:26:29;;;;;;;;;;;;;;;;;;5020310;27;108416;-62
2022/07/13 04:28:56;;;;;;;;;;;;;;;;;;5019124;27;108851;-62
2022/07/13 04:31:24;;;;;;;;;;;;;;;;;;5017679;27;108187;-62
2022/07/13 04:33:51;;;;;;;;;;;;;;;;;;5006374;28;108641;-62
2022/07/13 04:36:19;;;;;;;;;;;;;;;;;;5001475;27;107289;-63
2022/07/13 04:38:46;;;;;;;;;;;;;;;;;;5005270;28;108732;-62
2022/07/13 04:41:13;;;;;;;;;;;;;;;;;;5004873;27;108567;-62
2022/07/13 04:43:39;;;;;;;;;;;;;;;;;;5003433;27;106477;-62
2022/07/13 04:46:12;;;;;;;;;;;;;;;;;;5003871;27;108215;-62
2022/07/13 04:48:40;;;;;;;;;;;;;;;;;;5003646;27;109038;-62
2022/07/13 04:51:06;;;;;;;;;;;;;;;;;;5006951;27;106673;-63
2022/07/13 04:53:32;;;;;;;;;;;;;;;;;;5003276;27;134074;-62
2022/07/13 04:55:58;;;;;;;;;;;;;;;;;;5005041;27;106559;-62
2022/07/13 04:58:26;;;;;;;;;;;;;;;;;;5003604;27;135584;-62
2022/07/13 05:00:52;;;;;;;;;;;;;;;;;;5004676;27;109258;-64
2022/07/13 05:03:38;;;;;;;;;;;;;;;;;;5012009;27;107672;-64
2022/07/13 05:06:05;;;;;;;;;;;;;;;;;;4999429;28;123122;-63
2022/07/13 05:08:31;;;;;;;;;;;;;;;;;;5003037;27;133724;-62
2022/07/13 05:10:58;;;;;;;;;;;;;;;;;;4992510;27;107102;-62
2022/07/13 05:13:25;;;;;;;;;;;;;;;;;;5005332;27;108903;-62
2022/07/13 05:15:54;;;;;;;;;;;;;;;;;;5019355;27;108418;-63
2022/07/13 05:18:20;;;;;;;;;;;;;;;;;;5001714;27;137481;-62
2022/07/13 05:20:47;;;;;;;;;;;;;;;;;;5014636;27;135785;-62
2022/07/13 05:23:13;;;;;;;;;;;;;;;;;;5001555;27;128132;-62
2022/07/13 05:25:41;;;;;;;;;;;;;;;;;;5004888;27;106994;-62
2022/07/13 05:28:07;;;;;;;;;;;;;;;;;;4986928;27;108798;-62
2022/07/13 05:30:34;;;;;;;;;;;;;;;;;;5001311;27;128676;-62
2022/07/13 05:33:00;;;;;;;;;;;;;;;;;;5003809;28;124831;-64
2022/07/13 05:35:26;;;;;;;;;;;;;;;;;;5007542;27;108765;-64
2022/07/13 05:37:53;;;;;;;;;;;;;;;;;;5004470;27;108313;-64
2022/07/13 05:40:20;;;;;;;;;;;;;;;;;;4998009;27;114965;-64
2022/07/13 05:42:46;;;;;;;;;;;;;;;;;;5017484;27;121598;-62
2022/07/13 05:45:12;;;;;;;;;;;;;;;;;;5003667;28;136848;-64
2022/07/13 05:47:39;;;;;;;;;;;;;;;;;;5005508;28;113093;-64
2022/07/13 05:50:05;;;;;;;;;;;;;;;;;;5003110;28;106238;-65
2022/07/13 05:52:33;;;;;;;;;;;;;;;;;;5016296;27;108573;-62
2022/07/13 05:54:59;;;;;;;;;;;;;;;;;;5007345;28;136023;-64
2022/07/13 05:57:30;;;;;;;;;;;;;;;;;;5004395;27;137646;-64
2022/07/13 05:59:56;;;;;;;;;;;;;;;;;;5005176;27;136452;-64
2022/07/13 06:02:22;;;;;;;;;;;;;;;;;;5006470;28;127986;-65
2022/07/13 06:04:49;;;;;;;;;;;;;;;;;;5004963;27;137020;-64
2022/07/13 06:07:15;;;;;;;;;;;;;;;;;;5006042;28;131058;-64
2022/07/13 06:09:42;;;;;;;;;;;;;;;;;;5005554;28;114594;-64
2022/07/13 06:12:08;;;;;;;;;;;;;;;;;;5009766;28;136439;-64
2022/07/13 06:14:34;;;;;;;;;;;;;;;;;;5009292;27;123382;-64
2022/07/13 06:17:00;;;;;;;;;;;;;;;;;;5012144;28;129558;-64
2022/07/13 06:19:27;;;;;;;;;;;;;;;;;;5005999;27;136385;-65
2022/07/13 06:21:53;;;;;;;;;;;;;;;;;;5006932;27;107360;-65
2022/07/13 06:24:19;;;;;;;;;;;;;;;;;;5007860;27;136359;-64
2022/07/13 06:26:46;;;;;;;;;;;;;;;;;;5005782;27;136056;-64
2022/07/13 06:29:12;;;;;;;;;;;;;;;;;;5005685;27;128318;-64
2022/07/13 06:31:38;;;;;;;;;;;;;;;;;;5007571;27;136337;-63
2022/07/13 06:34:05;;;;;;;;;;;;;;;;;;5009114;27;125863;-64
2022/07/13 06:36:31;;;;;;;;;;;;;;;;;;5007157;28;126339;-64
2022/07/13 06:38:57;;;;;;;;;;;;;;;;;;5011461;28;136384;-64
2022/07/13 06:41:24;;;;;;;;;;;;;;;;;;5003683;28;133366;-63
2022/07/13 06:43:50;;;;;;;;;;;;;;;;;;5007643;27;107870;-62
2022/07/13 06:46:17;;;;;;;;;;;;;;;;;;5006741;28;138870;-65
2022/07/13 06:48:51;;;;;;;;;;;;;;;;;;5006547;28;113540;-62
2022/07/13 06:51:17;;;;;;;;;;;;;;;;;;4994824;28;136086;-65
2022/07/13 06:53:43;;;;;;;;;;;;;;;;;;5008709;28;132288;-63
2022/07/13 06:56:09;;;;;;;;;;;;;;;;;;5007361;27;129594;-63
2022/07/13 06:58:37;;;;;;;;;;;;;;;;;;5002852;27;133822;-64
2022/07/13 07:01:03;;;;;;;;;;;;;;;;;;5010179;28;137223;-64
2022/07/13 07:03:29;;;;;;;;;;;;;;;;;;5002155;27;137751;-63
2022/07/13 07:05:56;;;;;;;;;;;;;;;;;;5004921;28;132885;-64
2022/07/13 07:08:22;;;;;;;;;;;;;;;;;;5007667;28;130469;-65
2022/07/13 07:10:49;;;;;;;;;;;;;;;;;;5006212;28;135891;-65
2022/07/13 07:13:15;;;;;;;;;;;;;;;;;;4999241;27;138824;-63
2022/07/13 07:15:41;;;;;;;;;;;;;;;;;;5004462;28;129123;-63
2022/07/13 07:18:08;;;;;;;;;;;;;;;;;;5003803;28;133228;-62
2022/07/13 07:20:35;;;;;;;;;;;;;;;;;;5000447;28;136497;-64
2022/07/13 07:23:01;;;;;;;;;;;;;;;;;;5009072;27;129057;-62
2022/07/13 07:25:28;;;;;;;;;;;;;;;;;;5005244;27;107159;-65
2022/07/13 07:27:54;;;;;;;;;;;;;;;;;;5001239;27;125764;-63
2022/07/13 07:30:20;;;;;;;;;;;;;;;;;;4998365;27;138027;-63
2022/07/13 07:32:47;;;;;;;;;;;;;;;;;;5001258;28;135995;-63
2022/07/13 07:35:13;;;;;;;;;;;;;;;;;;5002001;28;129276;-64
2022/07/13 07:37:39;;;;;;;;;;;;;;;;;;4995413;27;137486;-64
2022/07/13 07:40:06;;;;;;;;;;;;;;;;;;4991360;28;133093;-62
2022/07/13 07:42:32;;;;;;;;;;;;;;;;;;5000028;27;127913;-62
2022/07/13 07:44:59;;;;;;;;;;;;;;;;;;5007278;28;108265;-63
2022/07/13 07:47:25;;;;;;;;;;;;;;;;;;4999458;28;130016;-63
2022/07/13 07:49:52;;;;;;;;;;;;;;;;;;4997125;28;137540;-63
2022/07/13 07:52:18;;;;;;;;;;;;;;;;;;5004502;27;138576;-63
2022/07/13 07:55:05;;;;;;;;;;;;;;;;;;5007081;28;107592;-62
2022/07/13 07:57:31;;;;;;;;;;;;;;;;;;5005734;28;137020;-62
2022/07/13 07:59:57;;;;;;;;;;;;;;;;;;5004216;27;131576;-63
2022/07/13 08:02:24;;;;;;;;;;;;;;;;;;5003654;27;129834;-64
2022/07/13 08:04:50;;;;;;;;;;;;;;;;;;5007939;28;137223;-63
2022/07/13 08:07:16;;;;;;;;;;;;;;;;;;5003940;28;121557;-62
2022/07/13 08:09:43;;;;;;;;;;;;;;;;;;5001336;28;118672;-63
2022/07/13 08:12:09;;;;;;;;;;;;;;;;;;5002419;28;138432;-62
2022/07/13 08:14:36;;;;;;;;;;;;;;;;;;5001632;28;128669;-63
2022/07/13 08:17:02;;;;;;;;;;;;;;;;;;5004407;28;134972;-62
2022/07/13 08:19:29;;;;;;;;;;;;;;;;;;5005191;27;138032;-62
2022/07/13 08:22:05;;;;;;;;;;;;;;;;;;5004513;28;127252;-62
2022/07/13 08:24:31;;;;;;;;;;;;;;;;;;5002346;28;138616;-62
2022/07/13 08:26:58;;;;;;;;;;;;;;;;;;5008467;28;108172;-62
2022/07/13 08:29:24;;;;;;;;;;;;;;;;;;5004672;28;137819;-63
2022/07/13 08:31:50;;;;;;;;;;;;;;;;;;5004962;28;137603;-62
2022/07/13 08:39:47;;;;;;;;;;;;;;;;;;5002817;28;138887;-63
2022/07/13 08:42:13;;;;;;;;;;;;;;;;;;5001951;27;128874;-62
2022/07/13 08:44:40;;;;;;;;;;;;;;;;;;5003490;27;138426;-63
2022/07/13 08:47:07;;;;;;;;;;;;;;;;;;4999451;27;138372;-63
2022/07/13 08:49:33;;;;;;;;;;;;;;;;;;5003663;28;129394;-63
2022/07/13 08:51:59;;;;;;;;;;;;;;;;;;5001346;28;138157;-63
2022/07/13 08:54:26;;;;;;;;;;;;;;;;;;4999908;27;130347;-63
2022/07/13 08:56:52;;;;;;;;;;;;;;;;;;5000664;28;138895;-63
2022/07/13 08:59:19;;;;;;;;;;;;;;;;;;5005092;27;109130;-63
2022/07/13 09:01:45;;;;;;;;;;;;;;;;;;5005909;28;107960;-63
2022/07/13 09:04:14;;;;;;;;;;;;;;;;;;5004318;27;138635;-63
2022/07/13 09:06:40;;;;;;;;;;;;;;;;;;4993160;28;135972;-63
2022/07/13 09:09:07;;;;;;;;;;;;;;;;;;5002836;28;129974;-64
2022/07/13 09:11:33;;;;;;;;;;;;;;;;;;5004550;28;136033;-63
2022/07/13 09:13:59;;;;;;;;;;;;;;;;;;5001639;27;131924;-63
2022/07/13 09:16:26;;;;;;;;;;;;;;;;;;5003713;28;136687;-63
2022/07/13 09:18:52;;;;;;;;;;;;;;;;;;5003378;28;138535;-63
2022/07/13 09:21:23;;;;;;;;;;;;;;;;;;5002191;28;130934;-65
2022/07/13 09:23:50;;;;;;;;;;;;;;;;;;5002825;27;139533;-62
2022/07/13 09:26:18;;;;;;;;;;;;;;;;;;5002749;28;137857;-65
2022/07/13 09:28:45;;;;;;;;;;;;;;;;;;4993112;27;108109;-62
2022/07/13 09:31:11;;;;;;;;;;;;;;;;;;4995588;27;137361;-63
2022/07/13 09:33:38;;;;;;;;;;;;;;;;;;5002479;28;139393;-63
2022/07/13 09:36:04;;;;;;;;;;;;;;;;;;5001523;27;139036;-62
2022/07/13 09:38:31;;;;;;;;;;;;;;;;;;5007930;28;137338;-62
2022/07/13 09:40:57;;;;;;;;;;;;;;;;;;5004461;28;121217;-63
2022/07/13 09:46:08;;;;;;;;;;;;;;;;;;4999254;28;136102;-62
2022/07/13 09:48:35;;;;;;;;;;;;;;;;;;5010529;28;124615;-64
2022/07/13 09:51:01;;;;;;;;;;;;;;;;;;4997380;28;136024;-64
2022/07/13 09:53:28;;;;;;;;;;;;;;;;;;5007377;28;137424;-63
2022/07/13 09:55:54;;;;;;;;;;;;;;;;;;5011310;27;127346;-63
2022/07/13 09:58:20;;;;;;;;;;;;;;;;;;5002714;27;137792;-62
2022/07/13 10:00:46;;;;;;;;;;;;;;;;;;5008794;27;110525;-62
2022/07/13 10:03:13;;;;;;;;;;;;;;;;;;5007758;28;134108;-63
2022/07/13 10:05:40;;;;;;;;;;;;;;;;;;5003539;27;130155;-63
2022/07/13 10:08:07;;;;;;;;;;;;;;;;;;5006602;27;131613;-63
2022/07/13 10:10:33;;;;;;;;;;;;;;;;;;5004078;27;138438;-64
2022/07/13 10:13:05;;;;;;;;;;;;;;;;;;5009956;28;135696;-64
2022/07/13 10:15:31;;;;;;;;;;;;;;;;;;5008621;27;130972;-62
2022/07/13 10:17:57;;;;;;;;;;;;;;;;;;5003154;28;139078;-63
2022/07/13 10:20:24;;;;;;;;;;;;;;;;;;5007946;28;129596;-63
2022/07/13 10:22:55;;;;;;;;;;;;;;;;;;5008701;28;138180;-63
2022/07/13 10:25:30;;;;;;;;;;;;;;;;;;5004176;28;137764;-62
2022/07/13 10:27:57;;;;;;;;;;;;;;;;;;5008269;28;130259;-62
2022/07/13 10:30:24;;;;;;;;;;;;;;;;;;5007782;27;139893;-63
2022/07/13 10:32:50;;;;;;;;;;;;;;;;;;5010335;27;139361;-62
2022/07/13 10:35:17;;;;;;;;;;;;;;;;;;5007175;28;127877;-65
2022/07/13 10:37:43;;;;;;;;;;;;;;;;;;5009932;27;137683;-64
2022/07/13 10:40:12;;;;;;;;;;;;;;;;;;5008450;28;129603;-63
2022/07/13 10:42:39;;;;;;;;;;;;;;;;;;5005558;28;139092;-63
2022/07/13 10:45:05;;;;;;;;;;;;;;;;;;5008707;28;139825;-63
2022/07/13 10:47:31;;;;;;;;;;;;;;;;;;5001151;27;128805;-63
2022/07/13 10:49:58;;;;;;;;;;;;;;;;;;5005083;28;131878;-63
2022/07/13 10:52:27;;;;;;;;;;;;;;;;;;5005285;28;138942;-63
2022/07/13 10:54:56;;;;;;;;;;;;;;;;;;5005647;28;125701;-64
2022/07/13 10:57:23;;;;;;;;;;;;;;;;;;5000375;28;139059;-62
2022/07/13 10:59:49;;;;;;;;;;;;;;;;;;5000006;28;140251;-64
2022/07/13 11:02:15;;;;;;;;;;;;;;;;;;4999264;28;137295;-66
2022/07/13 11:04:42;;;;;;;;;;;;;;;;;;5004662;27;139590;-64
2022/07/13 11:07:09;;;;;;;;;;;;;;;;;;5005668;27;109119;-64
2022/07/13 11:09:35;;;;;;;;;;;;;;;;;;4998850;28;120343;-64
2022/07/13 11:12:01;;;;;;;;;;;;;;;;;;5006004;28;140609;-62
2022/07/13 11:14:28;;;;;;;;;;;;;;;;;;5005274;28;131574;-62
2022/07/13 11:16:54;;;;;;;;;;;;;;;;;;5005544;27;125931;-61
2022/07/13 11:19:20;;;;;;;;;;;;;;;;;;5000592;28;139734;-63
2022/07/13 11:21:47;;;;;;;;;;;;;;;;;;4987638;28;131386;-62
2022/07/13 11:26:58;;;;;;;;;;;;;;;;;;4987694;28;109999;-62
2022/07/13 11:29:25;;;;;;;;;;;;;;;;;;4994135;28;138689;-63
2022/07/13 11:31:51;;;;;;;;;;;;;;;;;;4993937;28;141206;-62
2022/07/13 11:34:17;;;;;;;;;;;;;;;;;;4997376;28;130760;-63
2022/07/13 11:36:44;;;;;;;;;;;;;;;;;;4994222;28;130509;-62
2022/07/13 11:39:10;;;;;;;;;;;;;;;;;;4996357;28;140443;-62
2022/07/13 11:41:37;;;;;;;;;;;;;;;;;;4993788;28;134107;-62
2022/07/13 11:44:04;;;;;;;;;;;;;;;;;;4999136;28;120153;-62
2022/07/13 11:46:30;;;;;;;;;;;;;;;;;;4996939;28;127850;-62
2022/07/13 11:48:57;;;;;;;;;;;;;;;;;;5001616;27;139092;-62
2022/07/13 11:51:23;;;;;;;;;;;;;;;;;;4994136;28;123086;-65
2022/07/13 11:53:50;;;;;;;;;;;;;;;;;;4996711;28;110870;-63
2022/07/13 11:56:16;;;;;;;;;;;;;;;;;;4991409;28;139782;-64
2022/07/13 11:58:45;;;;;;;;;;;;;;;;;;4998944;28;139614;-63
2022/07/13 12:01:11;;;;;;;;;;;;;;;;;;5004242;27;130225;-63
2022/07/13 12:03:38;;;;;;;;;;;;;;;;;;4991361;27;137695;-63
2022/07/13 12:06:04;;;;;;;;;;;;;;;;;;5005489;27;108922;-62
2022/07/13 12:08:31;;;;;;;;;;;;;;;;;;5003266;27;137656;-63
2022/07/13 12:10:57;;;;;;;;;;;;;;;;;;4997200;27;123400;-62
2022/07/13 12:13:29;;;;;;;;;;;;;;;;;;5001933;27;133490;-63
2022/07/13 12:15:55;;;;;;;;;;;;;;;;;;5005416;28;108947;-63
2022/07/13 12:18:22;;;;;;;;;;;;;;;;;;5001766;27;136109;-63
2022/07/13 12:20:48;;;;;;;;;;;;;;;;;;4995413;27;130917;-62
2022/07/13 12:23:14;;;;;;;;;;;;;;;;;;5000981;27;139690;-63
2022/07/13 12:25:41;;;;;;;;;;;;;;;;;;5004007;28;129611;-63
2022/07/13 12:28:08;;;;;;;;;;;;;;;;;;5003514;28;138005;-62
2022/07/13 12:30:35;;;;;;;;;;;;;;;;;;5014671;27;130709;-66
2022/07/13 12:33:01;;;;;;;;;;;;;;;;;;5000509;27;131113;-63
2022/07/13 12:35:27;;;;;;;;;;;;;;;;;;5003159;28;134908;-63
2022/07/13 12:37:54;;;;;;;;;;;;;;;;;;4992927;28;110551;-63
2022/07/13 12:40:20;;;;;;;;;;;;;;;;;;5000551;28;131335;-63
2022/07/13 12:42:47;;;;;;;;;;;;;;;;;;4997585;28;138080;-62
2022/07/13 12:45:13;;;;;;;;;;;;;;;;;;5004348;28;113437;-63
2022/07/13 12:47:39;;;;;;;;;;;;;;;;;;5002441;28;121324;-63
2022/07/13 12:50:05;;;;;;;;;;;;;;;;;;5002291;28;138550;-62
2022/07/13 12:52:32;;;;;;;;;;;;;;;;;;5003374;28;131144;-63
2022/07/13 12:54:58;;;;;;;;;;;;;;;;;;5001832;27;138985;-64
2022/07/13 12:57:24;;;;;;;;;;;;;;;;;;5001669;28;139133;-63
2022/07/13 12:59:51;;;;;;;;;;;;;;;;;;5003543;28;131783;-63
2022/07/13 13:02:17;;;;;;;;;;;;;;;;;;5001585;28;139746;-64
2022/07/13 13:04:44;;;;;;;;;;;;;;;;;;5002338;27;137929;-62
2022/07/13 13:07:10;;;;;;;;;;;;;;;;;;5002131;28;124714;-62
2022/07/13 13:09:36;;;;;;;;;;;;;;;;;;5006430;28;138186;-63
2022/07/13 13:12:03;;;;;;;;;;;;;;;;;;5000799;27;112814;-62
2022/07/13 13:14:29;;;;;;;;;;;;;;;;;;5003359;28;139141;-63
2022/07/13 13:16:57;;;;;;;;;;;;;;;;;;4995902;27;129309;-63
2022/07/13 13:19:23;;;;;;;;;;;;;;;;;;4999966;28;132332;-65
2022/07/13 13:21:50;;;;;;;;;;;;;;;;;;5001966;27;125170;-62
2022/07/13 13:24:16;;;;;;;;;;;;;;;;;;5002083;28;139424;-62
2022/07/13 13:26:45;;;;;;;;;;;;;;;;;;5003587;28;125389;-62
2022/07/13 13:32:16;;;;;;;;;;;;;;;;;;5006660;28;139647;-63
2022/07/13 13:34:42;;;;;;;;;;;;;;;;;;5002832;28;138575;-63
2022/07/13 13:37:09;;;;;;;;;;;;;;;;;;5001116;27;139462;-62
2022/07/13 13:39:35;;;;;;;;;;;;;;;;;;5002682;27;127688;-65
2022/07/13 13:42:01;;;;;;;;;;;;;;;;;;5003057;28;137368;-63
2022/07/13 13:44:27;;;;;;;;;;;;;;;;;;5002047;28;139869;-63
2022/07/13 13:46:54;;;;;;;;;;;;;;;;;;5001794;27;131363;-63
2022/07/13 13:49:20;;;;;;;;;;;;;;;;;;5003166;28;137640;-62
2022/07/13 13:51:46;;;;;;;;;;;;;;;;;;5000990;28;140876;-63
2022/07/13 13:54:22;;;;;;;;;;;;;;;;;;5005569;28;130324;-62
2022/07/13 13:56:48;;;;;;;;;;;;;;;;;;5002159;28;139469;-63
2022/07/13 13:59:15;;;;;;;;;;;;;;;;;;4990741;28;130347;-62
2022/07/13 14:01:41;;;;;;;;;;;;;;;;;;5001724;27;137848;-62
2022/07/13 14:04:14;;;;;;;;;;;;;;;;;;4991223;28;139931;-62
2022/07/13 14:06:41;;;;;;;;;;;;;;;;;;4990053;28;126814;-63
2022/07/13 14:09:07;;;;;;;;;;;;;;;;;;5001050;28;140335;-62
2022/07/13 14:11:33;;;;;;;;;;;;;;;;;;5002883;27;118210;-62
2022/07/13 14:14:00;;;;;;;;;;;;;;;;;;4995560;28;133123;-63
2022/07/13 14:16:26;;;;;;;;;;;;;;;;;;4995579;28;138551;-63
2022/07/13 14:18:52;;;;;;;;;;;;;;;;;;4999607;27;129933;-63
2022/07/13 14:21:19;;;;;;;;;;;;;;;;;;5002292;27;138084;-63
2022/07/13 14:23:45;;;;;;;;;;;;;;;;;;5003237;27;110146;-62
2022/07/13 14:26:31;;;;;;;;;;;;;;;;;;4994155;28;108763;-63
2022/07/13 14:28:58;;;;;;;;;;;;;;;;;;5006127;28;120118;-62
2022/07/13 14:31:24;;;;;;;;;;;;;;;;;;5005828;27;138474;-63
2022/07/13 14:33:50;;;;;;;;;;;;;;;;;;5005031;27;130498;-62
2022/07/13 14:36:23;;;;;;;;;;;;;;;;;;5006559;27;139828;-66
2022/07/13 14:38:49;;;;;;;;;;;;;;;;;;5006320;27;126359;-62
2022/07/13 14:41:21;;;;;;;;;;;;;;;;;;5020412;27;139455;-62
2022/07/13 14:43:48;;;;;;;;;;;;;;;;;;4999672;27;137508;-62
2022/07/13 14:46:14;;;;;;;;;;;;;;;;;;5003260;28;130401;-62
2022/07/13 14:48:41;;;;;;;;;;;;;;;;;;5003928;27;122011;-62
2022/07/13 14:51:18;;;;;;;;;;;;;;;;;;5003943;28;111330;-63
2022/07/13 14:53:45;;;;;;;;;;;;;;;;;;5003849;27;133023;-63
2022/07/13 14:56:12;;;;;;;;;;;;;;;;;;4993707;28;138683;-63
2022/07/13 14:58:38;;;;;;;;;;;;;;;;;;5008669;28;131091;-63
2022/07/13 15:01:12;;;;;;;;;;;;;;;;;;4993280;28;139052;-62
2022/07/13 15:03:39;;;;;;;;;;;;;;;;;;4996733;27;134455;-62
2022/07/13 15:06:05;;;;;;;;;;;;;;;;;;5006339;27;131124;-61
2022/07/13 15:08:31;;;;;;;;;;;;;;;;;;4999180;27;138602;-63
2022/07/13 15:10:58;;;;;;;;;;;;;;;;;;4997889;27;133160;-63
2022/07/13 15:13:24;;;;;;;;;;;;;;;;;;4996021;27;131048;-63
2022/07/13 15:15:51;;;;;;;;;;;;;;;;;;5002199;27;141585;-62
2022/07/13 15:18:17;;;;;;;;;;;;;;;;;;5004841;27;140291;-66
2022/07/13 15:20:44;;;;;;;;;;;;;;;;;;5005799;27;132215;-63
2022/07/13 15:23:10;;;;;;;;;;;;;;;;;;4997001;27;139920;-61
2022/07/13 15:25:37;;;;;;;;;;;;;;;;;;5006831;27;131300;-63
2022/07/13 15:28:03;;;;;;;;;;;;;;;;;;5005942;27;109469;-63
2022/07/13 15:30:30;;;;;;;;;;;;;;;;;;5004171;27;111945;-62
2022/07/13 15:32:56;;;;;;;;;;;;;;;;;;5002476;27;131870;-63
2022/07/13 15:35:22;;;;;;;;;;;;;;;;;;4996406;27;133708;-62
2022/07/13 15:37:49;;;;;;;;;;;;;;;;;;4990470;27;113975;-62
2022/07/13 15:40:15;;;;;;;;;;;;;;;;;;5002644;27;108128;-63
2022/07/13 15:42:41;;;;;;;;;;;;;;;;;;5006602;27;138650;-63
2022/07/13 15:45:08;;;;;;;;;;;;;;;;;;5004938;27;126555;-61
2022/07/13 15:47:34;;;;;;;;;;;;;;;;;;5012566;27;124902;-62
2022/07/13 15:50:00;;;;;;;;;;;;;;;;;;5001580;27;138984;-61
2022/07/13 15:52:27;;;;;;;;;;;;;;;;;;5001222;27;129951;-64
2022/07/13 15:54:53;;;;;;;;;;;;;;;;;;5004519;27;137301;-64
2022/07/13 15:57:19;;;;;;;;;;;;;;;;;;5009463;27;137560;-63
2022/07/13 15:59:46;;;;;;;;;;;;;;;;;;4993619;27;128221;-62
2022/07/13 16:02:12;;;;;;;;;;;;;;;;;;5015125;27;131816;-62
2022/07/13 16:04:38;;;;;;;;;;;;;;;;;;5006095;28;137535;-62
2022/07/13 16:07:05;;;;;;;;;;;;;;;;;;5007864;27;138194;-62
2022/07/13 16:09:31;;;;;;;;;;;;;;;;;;4995123;27;138954;-62
2022/07/13 16:11:57;;;;;;;;;;;;;;;;;;5008799;27;126984;-62
2022/07/13 16:14:24;;;;;;;;;;;;;;;;;;5001577;27;136002;-62
2022/07/13 16:16:50;;;;;;;;;;;;;;;;;;5005058;27;134642;-62
2022/07/13 16:19:19;;;;;;;;;;;;;;;;;;5002463;27;121378;-63
2022/07/13 16:22:05;;;;;;;;;;;;;;;;;;5017756;27;107757;-62
2022/07/13 16:24:31;;;;;;;;;;;;;;;;;;5002559;27;137600;-64
2022/07/13 16:26:57;;;;;;;;;;;;;;;;;;4998106;27;134912;-64
2022/07/13 16:29:25;;;;;;;;;;;;;;;;;;5003052;27;133435;-65
2022/07/13 16:31:52;;;;;;;;;;;;;;;;;;5004458;27;106961;-65
2022/07/13 16:34:18;;;;;;;;;;;;;;;;;;5003628;27;107866;-66
2022/07/13 16:36:44;;;;;;;;;;;;;;;;;;5003328;27;137065;-65
2022/07/13 16:39:11;;;;;;;;;;;;;;;;;;5004165;27;128129;-65